createdAt,value
2022-12-23T00:00:07.841Z,5.72
2022-12-23T00:02:50.357Z,5.70
2022-12-23T00:05:37.564Z,5.76
2022-12-23T00:08:17.931Z,5.85
2022-12-23T00:10:59.595Z,5.88
2022-12-23T00:13:58.648Z,5.89
2022-12-23T00:16:39.816Z,5.89
2022-12-23T00:19:19.177Z,5.90
2022-12-23T00:21:57.332Z,5.91
2022-12-23T00:24:37.498Z,5.90
2022-12-23T00:27:17.363Z,5.97
2022-12-23T00:29:55.239Z,5.96
2022-12-23T00:32:35.305Z,5.93
2022-12-23T00:35:13.168Z,5.91
2022-12-23T00:37:51.412Z,5.93
2022-12-23T00:40:47.527Z,5.89
2022-12-23T00:43:27.531Z,5.94
2022-12-23T00:46:08.735Z,5.94
2022-12-23T00:49:04.389Z,5.96
2022-12-23T00:51:44.344Z,5.95
2022-12-23T00:54:24.130Z,5.97
2022-12-23T00:57:04.329Z,5.96
2022-12-23T01:00:04.937Z,6.01
2022-12-23T01:03:04.070Z,6.02
2022-12-23T01:05:45.018Z,6.14
2022-12-23T01:08:24.838Z,6.24
2022-12-23T01:11:04.919Z,6.36
2022-12-23T01:13:44.140Z,6.44
2022-12-23T01:16:22.351Z,6.60
2022-12-23T01:19:02.505Z,6.63
2022-12-23T01:21:43.788Z,6.65
2022-12-23T01:24:23.836Z,6.65
2022-12-23T01:27:05.011Z,6.66
2022-12-23T01:29:44.920Z,6.68
2022-12-23T01:32:24.624Z,6.68
2022-12-23T01:35:04.669Z,6.69
2022-12-23T01:37:45.827Z,6.71
2022-12-23T01:40:25.663Z,6.77
2022-12-23T01:43:05.490Z,6.76
2022-12-23T01:45:43.478Z,6.78
2022-12-23T01:48:22.100Z,6.81
2022-12-23T01:51:03.765Z,6.86
2022-12-23T01:53:43.584Z,6.96
2022-12-23T01:56:24.433Z,7.01
2022-12-23T01:59:06.885Z,7.07
2022-12-23T02:02:03.413Z,7.14
2022-12-23T02:04:41.214Z,7.15
2022-12-23T02:07:53.830Z,7.21
2022-12-23T02:10:33.567Z,7.27
2022-12-23T02:13:12.826Z,7.30
2022-12-23T02:16:12.207Z,7.33
2022-12-23T02:19:02.802Z,7.37
2022-12-23T02:21:44.922Z,7.38
2022-12-23T02:24:43.974Z,7.40
2022-12-23T02:27:27.745Z,7.42
2022-12-23T02:30:13.833Z,7.43
2022-12-23T02:32:56.294Z,7.44
2022-12-23T02:35:38.701Z,7.50
2022-12-23T02:38:17.346Z,7.50
2022-12-23T02:40:57.129Z,7.46
2022-12-23T02:43:40.227Z,7.50
2022-12-23T02:46:20.697Z,7.50
2022-12-23T02:49:02.022Z,7.52
2022-12-23T02:51:43.206Z,7.55
2022-12-23T02:54:22.968Z,7.56
2022-12-23T02:57:02.258Z,7.56
2022-12-23T02:59:44.891Z,7.58
2022-12-23T03:02:26.785Z,7.57
2022-12-23T03:05:06.479Z,7.60
2022-12-23T03:07:48.677Z,7.59
2022-12-23T03:10:29.651Z,7.60
2022-12-23T03:13:13.617Z,7.60
2022-12-23T03:15:52.832Z,7.61
2022-12-23T03:18:34.458Z,7.63
2022-12-23T03:21:15.699Z,7.60
2022-12-23T03:23:55.913Z,7.57
2022-12-23T03:26:37.491Z,7.59
2022-12-23T03:29:16.092Z,7.60
2022-12-23T03:31:55.218Z,7.58
2022-12-23T03:34:37.186Z,7.58
2022-12-23T03:37:16.697Z,7.60
2022-12-23T03:39:59.730Z,7.62
2022-12-23T03:42:38.403Z,7.63
2022-12-23T03:48:20.591Z,7.62
2022-12-23T03:51:02.175Z,7.63
2022-12-23T03:53:41.673Z,7.60
2022-12-23T03:56:22.959Z,7.61
2022-12-23T03:59:04.092Z,7.61
2022-12-23T04:01:44.532Z,7.62
2022-12-23T04:04:25.328Z,7.62
2022-12-23T04:07:07.349Z,7.61
2022-12-23T04:09:47.857Z,7.62
2022-12-23T04:12:27.873Z,7.60
2022-12-23T04:15:13.053Z,7.61
2022-12-23T04:17:54.115Z,7.61
2022-12-23T04:20:35.292Z,7.61
2022-12-23T04:23:14.897Z,7.58
2022-12-23T04:25:52.820Z,7.57
2022-12-23T04:28:33.012Z,7.54
2022-12-23T04:31:10.958Z,7.55
2022-12-23T04:33:49.042Z,7.59
2022-12-23T04:36:29.245Z,7.54
2022-12-23T04:39:11.212Z,7.53
2022-12-23T04:41:50.051Z,7.57
2022-12-23T04:44:30.259Z,7.49
2022-12-23T04:47:09.979Z,7.46
2022-12-23T04:49:47.897Z,7.46
2022-12-23T04:52:28.160Z,7.47
2022-12-23T04:55:10.331Z,7.46
2022-12-23T04:57:50.955Z,7.43
2022-12-23T05:00:30.625Z,7.41
2022-12-23T05:03:13.457Z,7.35
2022-12-23T05:05:53.522Z,7.36
2022-12-23T05:08:35.265Z,7.33
2022-12-23T05:11:16.232Z,7.30
2022-12-23T05:13:56.178Z,7.30
2022-12-23T05:16:34.131Z,7.25
2022-12-23T05:19:12.235Z,7.24
2022-12-23T05:21:54.275Z,7.20
2022-12-23T05:24:37.277Z,7.20
2022-12-23T05:27:16.392Z,7.14
2022-12-23T05:29:56.620Z,7.17
2022-12-23T05:32:36.374Z,7.14
2022-12-23T05:35:16.168Z,7.09
2022-12-23T05:37:54.124Z,7.11
2022-12-23T05:40:33.128Z,7.07
2022-12-23T05:43:15.993Z,7.05
2022-12-23T05:45:58.950Z,7.04
2022-12-23T05:48:38.050Z,7.03
2022-12-23T05:51:18.123Z,6.98
2022-12-23T05:53:56.071Z,6.98
2022-12-23T05:56:34.262Z,6.93
2022-12-23T05:59:12.536Z,6.91
2022-12-23T06:01:52.749Z,6.91
2022-12-23T06:04:33.813Z,6.86
2022-12-23T06:07:13.829Z,6.90
2022-12-23T06:09:55.593Z,6.85
2022-12-23T06:12:34.720Z,6.87
2022-12-23T06:15:15.538Z,6.84
2022-12-23T06:17:56.187Z,6.82
2022-12-23T06:20:36.110Z,6.83
2022-12-23T06:23:13.957Z,6.79
2022-12-23T06:25:52.117Z,6.77
2022-12-23T06:28:30.499Z,6.76
2022-12-23T06:31:10.430Z,6.75
2022-12-23T06:33:48.369Z,6.71
2022-12-23T06:36:28.458Z,6.72
2022-12-23T06:39:08.276Z,6.73
2022-12-23T06:41:46.204Z,6.67
2022-12-23T06:44:28.284Z,6.67
2022-12-23T06:47:09.415Z,6.66
2022-12-23T06:49:49.087Z,6.65
2022-12-23T06:52:27.021Z,6.61
2022-12-23T06:55:05.709Z,6.63
2022-12-23T06:57:43.420Z,6.61
2022-12-23T07:00:21.827Z,6.59
2022-12-23T07:03:00.051Z,6.60
2022-12-23T07:05:39.949Z,6.61
2022-12-23T07:08:18.186Z,6.59
2022-12-23T07:10:59.749Z,6.58
2022-12-23T07:13:39.725Z,6.59
2022-12-23T07:16:20.958Z,6.55
2022-12-23T07:19:02.241Z,6.56
2022-12-23T07:21:44.977Z,6.56
2022-12-23T07:24:25.242Z,6.55
2022-12-23T07:27:06.510Z,6.53
2022-12-23T07:29:46.213Z,6.50
2022-12-23T07:32:24.137Z,6.47
2022-12-23T07:35:04.511Z,6.45
2022-12-23T07:37:46.027Z,6.46
2022-12-23T07:40:27.082Z,6.46
2022-12-23T07:43:06.800Z,6.44
2022-12-23T07:45:51.307Z,6.47
2022-12-23T07:48:36.223Z,6.47
2022-12-23T07:51:14.107Z,6.43
2022-12-23T07:53:54.064Z,6.44
2022-12-23T07:56:33.008Z,6.45
2022-12-23T07:59:13.789Z,6.45
2022-12-23T08:01:51.655Z,6.47
2022-12-23T08:04:31.783Z,6.46
2022-12-23T08:07:11.715Z,6.46
2022-12-23T08:09:51.043Z,6.46
2022-12-23T08:12:33.151Z,6.45
2022-12-23T08:15:16.286Z,6.49
2022-12-23T08:17:57.157Z,6.49
2022-12-23T08:20:35.071Z,6.51
2022-12-23T08:23:18.697Z,6.51
2022-12-23T08:26:02.292Z,6.53
2022-12-23T08:28:43.145Z,6.52
2022-12-23T08:31:25.341Z,6.53
2022-12-23T08:34:07.572Z,6.52
2022-12-23T08:36:48.677Z,6.52
2022-12-23T08:39:26.491Z,6.53
2022-12-23T08:42:06.786Z,6.50
2022-12-23T08:44:46.420Z,6.49
2022-12-23T08:47:26.189Z,6.50
2022-12-23T08:50:06.980Z,6.53
2022-12-23T08:52:47.612Z,6.55
2022-12-23T08:55:28.944Z,6.57
2022-12-23T08:58:08.908Z,6.58
2022-12-23T09:00:50.160Z,6.56
2022-12-23T09:03:28.091Z,6.60
2022-12-23T09:06:06.724Z,6.62
2022-12-23T09:08:47.840Z,6.63
2022-12-23T09:11:29.544Z,6.65
2022-12-23T09:14:11.122Z,6.69
2022-12-23T09:16:52.691Z,6.73
2022-12-23T09:19:33.953Z,6.76
2022-12-23T09:22:14.981Z,6.78
2022-12-23T09:24:58.643Z,6.79
2022-12-23T09:27:42.451Z,6.80
2022-12-23T09:30:20.526Z,6.82
2022-12-23T09:32:58.637Z,6.85
2022-12-23T09:35:40.742Z,6.84
2022-12-23T09:38:21.780Z,6.83
2022-12-23T09:41:03.241Z,6.83
2022-12-23T09:43:44.477Z,6.84
2022-12-23T09:46:25.039Z,6.83
2022-12-23T09:49:05.042Z,6.85
2022-12-23T09:51:43.708Z,6.86
2022-12-23T09:54:24.378Z,6.85
2022-12-23T09:57:04.776Z,6.88
2022-12-23T09:59:46.563Z,6.89
2022-12-23T10:02:25.961Z,6.94
2022-12-23T10:05:08.009Z,6.93
2022-12-23T10:07:48.359Z,6.97
2022-12-23T10:10:31.761Z,6.98
2022-12-23T10:13:25.976Z,7.00
2022-12-23T10:16:07.486Z,7.02
2022-12-23T10:18:49.970Z,6.99
2022-12-23T10:21:33.343Z,7.01
2022-12-23T10:24:17.707Z,7.03
2022-12-23T10:26:58.839Z,7.04
2022-12-23T10:29:39.702Z,7.04
2022-12-23T10:32:21.499Z,7.01
2022-12-23T10:35:04.801Z,7.01
2022-12-23T10:37:46.525Z,7.04
2022-12-23T10:40:27.605Z,7.05
2022-12-23T10:43:11.572Z,7.06
2022-12-23T10:45:53.260Z,7.08
2022-12-23T10:48:39.207Z,7.08
2022-12-23T10:51:19.927Z,7.07
2022-12-23T10:54:01.650Z,7.10
2022-12-23T10:56:41.760Z,7.11
2022-12-23T10:59:23.003Z,7.10
2022-12-23T11:02:02.428Z,7.12
2022-12-23T11:04:41.778Z,7.14
2022-12-23T11:07:44.116Z,7.17
2022-12-23T11:10:23.982Z,7.20
2022-12-23T11:13:04.626Z,7.19
2022-12-23T11:15:44.409Z,7.20
2022-12-23T11:18:22.365Z,7.19
2022-12-23T11:21:05.023Z,7.19
2022-12-23T11:23:45.433Z,7.16
2022-12-23T11:26:27.291Z,7.18
2022-12-23T11:29:11.110Z,7.19
2022-12-23T11:31:51.447Z,7.21
2022-12-23T11:34:31.586Z,7.24
2022-12-23T11:37:22.399Z,7.24
2022-12-23T11:40:03.611Z,7.19
2022-12-23T11:42:41.404Z,7.15
2022-12-23T11:45:24.535Z,7.14
2022-12-23T11:48:02.925Z,7.17
2022-12-23T11:50:41.388Z,7.21
2022-12-23T11:53:23.141Z,7.22
2022-12-23T11:56:04.689Z,7.19
2022-12-23T11:58:47.608Z,7.23
2022-12-23T12:01:28.355Z,7.27
2022-12-23T12:04:08.998Z,7.27
2022-12-23T12:06:55.871Z,7.27
2022-12-23T12:09:38.413Z,7.30
2022-12-23T12:12:20.980Z,7.32
2022-12-23T12:15:01.909Z,7.32
2022-12-23T12:17:43.880Z,7.39
2022-12-23T12:20:27.579Z,7.41
2022-12-23T12:23:10.183Z,7.49
2022-12-23T12:25:52.679Z,7.47
2022-12-23T12:28:36.206Z,7.43
2022-12-23T12:31:24.047Z,7.56
2022-12-23T12:34:06.893Z,7.59
2022-12-23T12:36:47.358Z,7.53
2022-12-23T12:39:31.776Z,7.65
2022-12-23T12:42:12.278Z,7.65
2022-12-23T12:44:56.432Z,7.59
2022-12-23T12:47:53.923Z,7.68
2022-12-23T12:50:35.471Z,7.71
2022-12-23T12:53:17.112Z,7.68
2022-12-23T12:56:00.373Z,7.68
2022-12-23T12:58:40.233Z,7.69
2022-12-23T13:01:25.061Z,7.68
2022-12-23T13:04:20.220Z,7.66
2022-12-23T13:07:04.309Z,7.66
2022-12-23T13:09:48.713Z,7.55
2022-12-23T13:12:30.244Z,7.54
2022-12-23T13:15:14.430Z,7.51
2022-12-23T13:18:01.933Z,7.52
2022-12-23T13:20:47.364Z,7.56
2022-12-23T13:23:45.562Z,7.57
2022-12-23T13:26:31.650Z,7.58
2022-12-23T13:29:24.991Z,7.62
2022-12-23T13:32:03.677Z,7.62
2022-12-23T13:34:45.454Z,7.59
2022-12-23T13:37:26.603Z,7.55
2022-12-23T13:40:18.507Z,7.53
2022-12-23T13:43:11.373Z,7.49
2022-12-23T13:45:52.656Z,7.45
2022-12-23T13:48:44.871Z,7.41
2022-12-23T13:51:33.814Z,7.42
2022-12-23T13:54:15.383Z,7.44
2022-12-23T13:56:54.457Z,7.43
2022-12-23T13:59:41.891Z,7.41
2022-12-23T14:02:40.863Z,7.42
2022-12-23T14:05:29.215Z,7.43
2022-12-23T14:08:20.312Z,7.42
2022-12-23T14:11:00.780Z,7.36
2022-12-23T14:13:42.396Z,7.35
2022-12-23T14:16:35.196Z,7.31
2022-12-23T14:19:24.121Z,7.28
2022-12-23T14:22:09.977Z,7.27
2022-12-23T14:25:02.015Z,7.25
2022-12-23T14:27:44.324Z,7.24
2022-12-23T14:30:24.505Z,7.28
2022-12-23T14:33:06.111Z,7.26
2022-12-23T14:36:14.371Z,7.23
2022-12-23T14:39:11.964Z,7.23
2022-12-23T14:42:00.134Z,7.21
2022-12-23T14:44:49.148Z,7.17
2022-12-23T14:47:32.329Z,7.13
2022-12-23T14:50:29.263Z,7.14
2022-12-23T14:53:24.389Z,7.11
2022-12-23T14:56:12.196Z,7.16
2022-12-23T14:58:59.286Z,7.11
2022-12-23T15:01:41.934Z,7.08
2022-12-23T15:04:23.400Z,7.05
2022-12-23T15:07:04.977Z,7.04
2022-12-23T15:09:45.425Z,7.00
2022-12-23T15:12:27.217Z,6.95
2022-12-23T15:15:08.728Z,6.96
2022-12-23T15:17:49.548Z,6.88
2022-12-23T15:20:30.733Z,6.88
2022-12-23T15:23:11.048Z,6.83
2022-12-23T15:25:51.857Z,6.81
2022-12-23T15:28:35.765Z,6.79
2022-12-23T15:31:18.976Z,6.78
2022-12-23T15:34:04.364Z,6.78
2022-12-23T15:36:45.590Z,6.79
2022-12-23T15:39:28.739Z,6.77
2022-12-23T15:42:19.056Z,6.84
2022-12-23T15:44:59.348Z,6.78
2022-12-23T15:47:39.444Z,6.78
2022-12-23T15:50:19.607Z,6.72
2022-12-23T15:52:58.902Z,6.77
2022-12-23T15:55:37.305Z,6.76
2022-12-23T15:58:19.446Z,6.72
2022-12-23T16:01:01.836Z,6.71
2022-12-23T16:03:41.585Z,6.73
2022-12-23T16:06:21.759Z,6.75
2022-12-23T16:09:05.743Z,6.77
2022-12-23T16:11:52.878Z,6.75
2022-12-23T16:14:34.719Z,6.71
2022-12-23T16:17:18.182Z,6.69
2022-12-23T16:22:54.413Z,6.73
2022-12-23T16:25:33.939Z,6.68
2022-12-23T16:28:17.722Z,6.69
2022-12-23T16:30:56.555Z,6.71
2022-12-23T16:33:37.182Z,6.69
2022-12-23T16:36:19.840Z,6.63
2022-12-23T16:39:05.462Z,6.62
2022-12-23T16:41:43.232Z,6.63
2022-12-23T16:44:21.497Z,6.63
2022-12-23T16:47:03.969Z,6.62
2022-12-23T16:49:44.653Z,6.65
2022-12-23T16:52:22.439Z,6.61
2022-12-23T16:55:02.545Z,6.63
2022-12-23T16:57:44.416Z,6.58
2022-12-23T17:00:23.758Z,6.61
2022-12-23T17:03:03.742Z,6.59
2022-12-23T17:05:41.506Z,6.59
2022-12-23T17:08:21.682Z,6.58
2022-12-23T17:11:01.428Z,6.58
2022-12-23T17:13:41.173Z,6.60
2022-12-23T17:16:24.245Z,6.58
2022-12-23T17:19:05.448Z,6.58
2022-12-23T17:21:45.886Z,6.62
2022-12-23T17:24:27.300Z,6.59
2022-12-23T17:27:12.060Z,6.52
2022-12-23T17:29:52.957Z,6.58
2022-12-23T17:32:30.816Z,6.52
2022-12-23T17:35:16.518Z,6.52
2022-12-23T17:37:55.182Z,6.53
2022-12-23T17:40:35.250Z,6.48
2022-12-23T17:43:15.263Z,6.50
2022-12-23T17:45:54.967Z,6.53
2022-12-23T17:48:34.691Z,6.49
2022-12-23T17:51:14.724Z,6.47
2022-12-23T17:53:58.207Z,6.45
2022-12-23T17:56:38.922Z,6.48
2022-12-23T17:59:18.749Z,6.45
2022-12-23T18:01:58.609Z,6.47
2022-12-23T18:04:38.339Z,6.48
2022-12-23T18:07:18.432Z,6.45
2022-12-23T18:09:59.579Z,6.47
2022-12-23T18:12:40.011Z,6.46
2022-12-23T18:15:22.078Z,6.43
2022-12-23T18:18:00.295Z,6.43
2022-12-23T18:20:40.419Z,6.47
2022-12-23T18:23:20.005Z,6.50
2022-12-23T18:26:00.438Z,6.45
2022-12-23T18:28:39.504Z,6.48
2022-12-23T18:31:20.644Z,6.47
2022-12-23T18:34:01.026Z,6.47
2022-12-23T18:36:39.001Z,6.50
2022-12-23T18:39:19.049Z,6.51
2022-12-23T18:41:58.844Z,6.49
2022-12-23T18:44:38.671Z,6.47
2022-12-23T18:47:20.459Z,6.48
2022-12-23T18:49:59.612Z,6.52
2022-12-23T18:52:37.798Z,6.51
2022-12-23T18:55:17.966Z,6.51
2022-12-23T18:57:57.951Z,6.54
2022-12-23T19:00:39.659Z,6.52
2022-12-23T19:03:22.408Z,6.56
2022-12-23T19:06:06.352Z,6.52
2022-12-23T19:08:46.508Z,6.51
2022-12-23T19:11:24.459Z,6.54
2022-12-23T19:14:03.053Z,6.52
2022-12-23T19:16:49.257Z,6.48
2022-12-23T19:19:30.300Z,6.49
2022-12-23T19:22:12.352Z,6.47
2022-12-23T19:25:05.175Z,6.47
2022-12-23T19:27:47.737Z,6.46
2022-12-23T19:30:27.445Z,6.44
2022-12-23T19:33:07.186Z,6.46
2022-12-23T19:35:49.004Z,6.44
2022-12-23T19:38:29.990Z,6.46
2022-12-23T19:41:10.014Z,6.46
2022-12-23T19:43:51.235Z,6.45
2022-12-23T19:46:33.122Z,6.43
2022-12-23T19:49:19.920Z,6.46
2022-12-23T19:52:00.274Z,6.47
2022-12-23T19:54:42.056Z,6.44
2022-12-23T19:57:23.068Z,6.46
2022-12-23T20:00:03.129Z,6.43
2022-12-23T20:02:56.710Z,6.45
2022-12-23T20:05:38.464Z,6.45
2022-12-23T20:08:18.326Z,6.47
2022-12-23T20:11:04.270Z,6.49
2022-12-23T20:13:42.414Z,6.48
2022-12-23T20:16:24.739Z,6.49
2022-12-23T20:19:05.843Z,6.50
2022-12-23T20:21:49.881Z,6.48
2022-12-23T20:24:29.972Z,6.48
2022-12-23T20:27:12.068Z,6.51
2022-12-23T20:29:52.717Z,6.50
2022-12-23T20:32:34.540Z,6.46
2022-12-23T20:35:15.649Z,6.49
2022-12-23T20:37:55.353Z,6.47
2022-12-23T20:40:35.175Z,6.45
2022-12-23T20:43:15.447Z,6.48
2022-12-23T20:45:56.427Z,6.46
2022-12-23T20:48:36.339Z,6.39
2022-12-23T20:51:16.807Z,6.45
2022-12-23T20:53:59.898Z,6.45
2022-12-23T20:56:40.404Z,6.47
2022-12-23T20:59:20.245Z,6.39
2022-12-23T21:02:00.302Z,6.37
2022-12-23T21:04:39.619Z,6.42
2022-12-23T21:07:17.777Z,6.42
2022-12-23T21:10:09.051Z,6.42
2022-12-23T21:12:49.049Z,6.42
2022-12-23T21:15:31.379Z,6.41
2022-12-23T21:18:12.033Z,6.43
2022-12-23T21:20:51.651Z,6.45
2022-12-23T21:23:31.592Z,6.45
2022-12-23T21:26:12.728Z,6.45
2022-12-23T21:28:55.377Z,6.44
2022-12-23T21:31:36.613Z,6.43
2022-12-23T21:34:17.912Z,6.43
2022-12-23T21:36:58.556Z,6.46
2022-12-23T21:39:38.292Z,6.44
2022-12-23T21:42:18.135Z,6.40
2022-12-23T21:44:56.032Z,6.43
2022-12-23T21:47:36.130Z,6.44
2022-12-23T21:50:18.089Z,6.42
2022-12-23T21:52:58.963Z,6.44
2022-12-23T21:55:38.777Z,6.32
2022-12-23T21:58:18.556Z,6.35
2022-12-23T22:00:56.539Z,6.38
2022-12-23T22:03:34.749Z,6.35
2022-12-23T22:06:15.456Z,6.40
2022-12-23T22:08:56.408Z,6.43
2022-12-23T22:11:37.736Z,6.44
2022-12-23T22:14:18.026Z,6.42
2022-12-23T22:16:59.014Z,6.34
2022-12-23T22:19:40.227Z,6.38
2022-12-23T22:22:20.042Z,6.35
2022-12-23T22:25:00.329Z,6.35
2022-12-23T22:27:41.264Z,6.35
2022-12-23T22:30:21.061Z,6.31
2022-12-23T22:33:00.966Z,6.30
2022-12-23T22:35:40.879Z,6.28
2022-12-23T22:38:20.639Z,6.27
2022-12-23T22:41:01.872Z,6.30
2022-12-23T22:43:41.693Z,6.30
2022-12-23T22:46:24.305Z,6.30
2022-12-23T22:49:04.631Z,6.26
2022-12-23T22:51:44.588Z,6.29
2022-12-23T22:54:26.227Z,6.29
2022-12-23T22:57:07.180Z,6.27
2022-12-23T22:59:56.885Z,6.25
2022-12-23T23:02:36.912Z,6.26
2022-12-23T23:05:16.796Z,6.22
2022-12-23T23:07:57.535Z,6.26
2022-12-23T23:10:38.213Z,6.21
2022-12-23T23:13:19.350Z,6.24
2022-12-23T23:15:59.518Z,6.26
2022-12-23T23:18:42.676Z,6.22
2022-12-23T23:21:23.591Z,6.25
2022-12-23T23:24:05.741Z,6.22
2022-12-23T23:26:46.467Z,6.23
2022-12-23T23:29:26.445Z,6.20
2022-12-23T23:32:08.127Z,6.20
2022-12-23T23:34:49.137Z,6.15
2022-12-23T23:37:42.331Z,6.10
2022-12-23T23:40:22.469Z,6.09
2022-12-23T23:43:05.535Z,6.08
2022-12-23T23:45:48.827Z,6.10
2022-12-23T23:48:27.547Z,6.13
2022-12-23T23:51:08.254Z,6.14
2022-12-23T23:53:49.258Z,6.13
2022-12-23T23:56:37.857Z,6.14
2022-12-23T23:59:21.821Z,6.14
